ADDS METAR Data INFO
IDs: Format: Raw Decoded Include TAF

Data at: 1014 UTC 14 Dec 2017

KSUS 140954Z AUTO 01006KT 10SM OVC036 02/M04 A2994 RMK AO2 SLP140 T00221044
KSUS 140854Z AUTO 36007KT 10SM OVC038 03/M04 A2994 RMK AO2 SLP140 T00281044 51017
KSUS 140754Z AUTO 33009G20KT 10SM OVC041 03/M05 A2993 RMK AO2 SLP139 T00331050
KSUS 140654Z AUTO 33011G18KT 10SM BKN042 03/M05 A2991 RMK AO2 PK WND 32026/0617 SLP131 T00331050
KSUS 140554Z AUTO 33011G24KT 10SM BKN039 04/M04 A2989 RMK AO2 PK WND 31026/0520 SLP124 T00441044 10100 20044 401501072 53033
KSUS 140454Z 31014G26KT 10SM OVC037 05/M03 A2986 RMK AO2 PK WND 34029/0415 SLP114 T00501028
KSUS 140354Z 32013G18KT 10SM OVC038 06/M01 A2982 RMK AO2 PK WND 33027/0333 SLP099 T00611011
KSUS 140254Z 31015G27KT 10SM CLR 06/M01 A2979 RMK AO2 PK WND 32032/0206 SLP092 T00611011 51035
KSUS 140154Z 31017G29KT 10SM CLR 08/00 A2976 RMK AO2 PK WND 31029/0154 PRESRR SLP084 T00780000
KSUS 140054Z 30012G17KT 10SM CLR 09/M01 A2971 RMK AO2 SLP067 T00941011
KSUS 132354Z 30008KT 10SM CLR 09/M02 A2968 RMK AO2 PK WND 31031/2303 SLP057 T00941017 10150 20094 53034
KSUS 132254Z 30020G30KT 10SM FEW065 13/M01 A2965 RMK AO2 PK WND 31033/2207 SLP042 T01281011
KSUS 132154Z 30023G34KT 10SM FEW065 14/M01 A2960 RMK AO2 PK WND 29039/2111 SLP028 T01441006
KSUS 132054Z 27019G31KT 10SM FEW065 15/M01 A2958 RMK AO2 PK WND 28038/2026 SLP021 T01501011 55007
KSUS 131954Z COR 28020G33KT 10SM FEW065 14/M02 A2956 RMK AO2 PK WND 28033/1951 SLP014 T01441017
KSUS 131854Z 27016G25KT 10SM CLR 13/M03 A2956 RMK AO2 PK WND 25030/1841 SLP015 T01331028
KSUS 131754Z 26015G25KT 10SM FEW110 BKN250 11/M03 A2960 RMK AO2 PK WND 25027/1710 SLP030 T01111033 10117 20000 56012
KSUS 131654Z 26015G23KT 10SM BKN250 10/M04 A2960 RMK AO2 PK WND 23032/1616 SLP030 T01001044
KSUS 131554Z 24015G23KT 10SM CLR 08/M06 A2963 RMK AO2 SLP041 T00781056
KSUS 131454Z 22013G23KT 10SM SCT250 05/M06 A2964 RMK AO2 SLP044 T00501061 58042
KSUS 131354Z 20007KT 10SM FEW250 01/M07 A2970 RMK AO2 SLP065 T00111067
KSUS 131254Z 21007KT 10SM CLR 01/M07 A2974 RMK AO2 SLP079 T00061067
KSUS 131154Z 20009G16KT 10SM CLR 00/M08 A2977 RMK AO2 PRESFR SLP088 T00001078 10006 21072 58053
KSUS 131054Z AUTO 20007KT 10SM CLR 00/M09 A2983 RMK AO2 SLP108 T00001089
KSUS 130954Z 20008KT 10SM CLR M01/M09 A2987 RMK AO2 SLP124 T10111089
KSUS 130854Z 00000KT 10SM CLR M03/M11 A2992 RMK AO2 SLP141 T10331111 58035
KSUS 130754Z 26004KT 10SM CLR M04/M11 A2996 RMK AO2 SLP155 T10441111
KSUS 130654Z 00000KT 10SM CLR M07/M11 A2999 RMK AO2 SLP165 T10671106
KSUS 130554Z 00000KT 10SM CLR M06/M11 A3003 RMK AO2 SLP177 T10611111 11022 21067 400561067 58022
KSUS 130454Z 00000KT 10SM CLR M06/M11 A3006 RMK AO2 SLP188 T10561111
KSUS 130354Z 00000KT 10SM CLR M05/M11 A3007 RMK AO2 SLP193 T10501106
KSUS 130254Z 00000KT 10SM CLR M05/M12 A3009 RMK AO2 SLP200 T10501117 58016
KSUS 130154Z 00000KT 10SM CLR M04/M13 A3011 RMK AO2 SLP206 T10391128
KSUS 130054Z 25003KT 10SM FEW110 M04/M12 A3013 RMK AO2 SLP212 T10441117
KSUS 122354Z 00000KT 10SM CLR M04/M12 A3014 RMK AO2 SLP215 T10391122 10028 21039 56007
KSUS 122254Z 31005KT 10SM CLR 00/M17 A3014 RMK AO2 SLP215 T00001172